createdAt,value
2023-02-11T00:01:30.264Z,103634.71
2023-02-11T00:03:58.260Z,103632.98
2023-02-11T00:06:26.862Z,103642.88
2023-02-11T00:08:54.774Z,103647.82
2023-02-11T00:11:23.528Z,103642.39
2023-02-11T00:13:51.532Z,103643.27
2023-02-11T00:16:20.826Z,103642.39
2023-02-11T00:18:48.955Z,103637.00
2023-02-11T00:21:18.694Z,103644.09
2023-02-11T00:23:47.124Z,103632.87
2023-02-11T00:26:16.744Z,103628.30
2023-02-11T00:28:47.548Z,103629.38
2023-02-11T00:31:15.813Z,103637.98
2023-02-11T00:33:43.932Z,103624.18
2023-02-11T00:36:15.547Z,103631.05
2023-02-11T00:38:46.929Z,103624.77
2023-02-11T00:41:14.873Z,103618.52
2023-02-11T00:43:42.746Z,103627.13
2023-02-11T00:46:10.640Z,103627.52
2023-02-11T00:48:38.561Z,103625.39
2023-02-11T00:51:06.706Z,103612.87
2023-02-11T00:53:34.642Z,103619.50
2023-02-11T00:56:02.582Z,103619.96
2023-02-11T00:58:30.475Z,103608.52
2023-02-11T01:00:58.510Z,103614.30
2023-02-11T01:03:26.612Z,103604.17
2023-02-11T01:05:54.599Z,103599.16
2023-02-11T01:08:22.628Z,103598.12
2023-02-11T01:11:00.898Z,103600.51
2023-02-11T01:13:29.415Z,103598.58
2023-02-11T01:15:57.484Z,103593.55
2023-02-11T01:18:25.681Z,103589.72
2023-02-11T01:20:54.179Z,103588.18
2023-02-11T01:23:22.041Z,103590.30
2023-02-11T01:25:50.445Z,103588.57
2023-02-11T01:28:20.322Z,103579.48
2023-02-11T01:30:48.244Z,103580.30
2023-02-11T01:33:16.067Z,103583.08
2023-02-11T01:35:44.129Z,103579.65
2023-02-11T01:38:23.139Z,103576.64
2023-02-11T01:40:55.226Z,103567.95
2023-02-11T01:43:23.432Z,103573.96
2023-02-11T01:46:15.880Z,103575.73
2023-02-11T01:48:52.184Z,103571.63
2023-02-11T01:51:26.715Z,103565.75
2023-02-11T01:54:12.998Z,103567.48
2023-02-11T01:57:01.900Z,103569.71
2023-02-11T01:59:42.053Z,103577.85
2023-02-11T02:02:12.043Z,103577.16
2023-02-11T02:04:43.560Z,103578.44
2023-02-11T02:07:15.050Z,103575.82
2023-02-11T02:09:45.386Z,103571.96
2023-02-11T02:12:13.231Z,103572.45
2023-02-11T02:14:44.159Z,103559.48
2023-02-11T02:17:13.245Z,103565.30
2023-02-11T02:19:50.262Z,103577.78
2023-02-11T02:22:36.548Z,103568.92
2023-02-11T02:25:27.531Z,103572.75
2023-02-11T02:28:03.503Z,103566.70
2023-02-11T02:30:45.134Z,103560.23
2023-02-11T02:33:22.916Z,103556.95
2023-02-11T02:36:15.885Z,103558.03
2023-02-11T02:38:52.918Z,103561.70
2023-02-11T02:41:22.623Z,103549.44
2023-02-11T02:43:51.378Z,103561.70
2023-02-11T02:46:21.971Z,103559.77
2023-02-11T02:48:53.892Z,103556.95
2023-02-11T02:51:47.907Z,103564.67
2023-02-11T02:54:45.735Z,103546.82
2023-02-11T02:57:19.450Z,103556.27
2023-02-11T03:00:11.891Z,103547.24
2023-02-11T03:03:05.766Z,103540.74
2023-02-11T03:05:42.478Z,103543.09
2023-02-11T03:08:43.903Z,103543.68
2023-02-11T03:11:12.209Z,103531.81
2023-02-11T03:13:41.128Z,103533.55
2023-02-11T03:16:17.647Z,103532.66
2023-02-11T03:18:47.882Z,103513.08
2023-02-11T03:21:16.056Z,103513.08
2023-02-11T03:23:52.012Z,103507.06
2023-02-11T03:26:29.347Z,103509.68
2023-02-11T03:29:02.572Z,103509.22
2023-02-11T03:31:35.633Z,103515.86
2023-02-11T03:34:31.883Z,103518.90
2023-02-11T03:37:33.542Z,103517.13
2023-02-11T03:40:06.436Z,103513.47
2023-02-11T03:42:45.630Z,103522.27
2023-02-11T03:45:14.963Z,103510.43
2023-02-11T03:47:44.685Z,103504.15
2023-02-11T03:50:12.502Z,103495.95
2023-02-11T03:52:40.377Z,103506.67
2023-02-11T03:55:13.689Z,103497.87
2023-02-11T03:57:41.559Z,103490.32
2023-02-11T04:00:10.533Z,103489.93
2023-02-11T04:02:38.634Z,103493.82
2023-02-11T04:05:08.020Z,103496.20
2023-02-11T04:07:36.429Z,103490.16
2023-02-11T04:10:04.324Z,103491.40
2023-02-11T04:12:32.421Z,103497.68
2023-02-11T04:15:00.289Z,103502.88
2023-02-11T04:17:28.184Z,103497.48
2023-02-11T04:19:56.225Z,103503.53
2023-02-11T04:22:24.094Z,103498.59
2023-02-11T04:24:51.940Z,103508.27
2023-02-11T04:27:19.770Z,103506.54
2023-02-11T04:29:47.713Z,103508.08
2023-02-11T04:32:15.607Z,103497.94
2023-02-11T04:34:43.415Z,103505.07
2023-02-11T04:37:11.305Z,103503.14
2023-02-11T04:39:39.202Z,103501.86
2023-02-11T04:42:07.058Z,103504.87
2023-02-11T04:44:35.166Z,103511.34
2023-02-11T04:47:02.974Z,103509.22
2023-02-11T04:49:30.840Z,103513.08
2023-02-11T04:51:58.668Z,103514.32
2023-02-11T04:54:26.495Z,103522.95
2023-02-11T04:56:54.316Z,103528.54
2023-02-11T04:59:22.386Z,103527.30
2023-02-11T05:01:51.052Z,103530.96
2023-02-11T05:04:18.950Z,103528.15
2023-02-11T05:06:46.932Z,103536.16
2023-02-11T05:09:14.914Z,103537.41
2023-02-11T05:11:42.724Z,103535.48
2023-02-11T05:14:10.481Z,103535.02
2023-02-11T05:16:38.386Z,103550.29
2023-02-11T05:19:06.241Z,103540.54
2023-02-11T05:21:34.158Z,103548.95
2023-02-11T05:24:02.019Z,103560.16
2023-02-11T05:26:29.931Z,103553.69
2023-02-11T05:28:57.848Z,103552.61
2023-02-11T05:31:25.618Z,103563.13
2023-02-11T05:33:53.505Z,103562.94
2023-02-11T05:36:21.395Z,103559.48
2023-02-11T05:38:49.347Z,103553.69
2023-02-11T05:41:17.331Z,103562.09
2023-02-11T05:43:45.327Z,103568.53
2023-02-11T05:46:13.128Z,103565.91
2023-02-11T05:48:41.005Z,103557.05
2023-02-11T05:51:08.954Z,103558.13
2023-02-11T05:53:36.862Z,103556.20
2023-02-11T05:56:04.756Z,103568.07
2023-02-11T05:58:33.522Z,103564.41
2023-02-11T06:01:01.395Z,103575.79
2023-02-11T06:03:29.280Z,103577.13
2023-02-11T06:05:57.174Z,103583.63
2023-02-11T06:08:24.989Z,103563.73
2023-02-11T06:10:52.816Z,103564.61
2023-02-11T06:13:21.032Z,103567.78
2023-02-11T06:15:57.646Z,103569.74
2023-02-11T06:18:25.615Z,103562.19
2023-02-11T06:20:53.548Z,103554.41
2023-02-11T06:23:21.364Z,103545.05
2023-02-11T06:25:49.853Z,103542.24
2023-02-11T06:28:17.925Z,103531.84
2023-02-11T06:30:45.845Z,103538.91
2023-02-11T06:33:14.204Z,103536.29
2023-02-11T06:35:42.232Z,103541.69
2023-02-11T06:38:10.084Z,103544.95
2023-02-11T06:40:38.013Z,103538.29
2023-02-11T06:43:05.775Z,103535.51
2023-02-11T06:45:33.610Z,103529.03
2023-02-11T06:48:01.448Z,103526.91
2023-02-11T06:50:29.246Z,103511.84
2023-02-11T06:52:56.964Z,103509.05
2023-02-11T06:55:24.710Z,103496.99
2023-02-11T06:57:52.652Z,103504.12
2023-02-11T07:00:20.648Z,103496.99
2023-02-11T07:02:48.576Z,103498.73
2023-02-11T07:05:16.590Z,103502.02
2023-02-11T07:07:44.384Z,103477.47
2023-02-11T07:10:12.183Z,103477.08
2023-02-11T07:12:40.099Z,103467.14
2023-02-11T07:15:08.324Z,103472.14
2023-02-11T07:17:37.080Z,103465.47
2023-02-11T07:20:05.140Z,103477.34
2023-02-11T07:22:32.964Z,103491.14
2023-02-11T07:25:00.866Z,103499.64
2023-02-11T07:27:28.777Z,103499.67
2023-02-11T07:29:56.557Z,103511.15
2023-02-11T07:32:24.390Z,103509.48
2023-02-11T07:34:52.295Z,103520.08
2023-02-11T07:37:20.406Z,103518.44
2023-02-11T07:39:48.264Z,103512.88
2023-02-11T07:42:16.040Z,103497.38
2023-02-11T07:44:43.844Z,103506.48
2023-02-11T07:47:11.608Z,103506.05
2023-02-11T07:49:39.529Z,103483.69
2023-02-11T07:52:07.299Z,103467.80
2023-02-11T07:54:35.112Z,103471.52
2023-02-11T07:57:02.969Z,103483.84
2023-02-11T07:59:30.771Z,103506.12
2023-02-11T08:01:58.679Z,103526.65
2023-02-11T08:04:26.593Z,103540.74
2023-02-11T08:06:58.993Z,103561.73
2023-02-11T08:09:27.051Z,103564.15
2023-02-11T08:11:54.809Z,103565.95
2023-02-11T08:14:22.779Z,103561.05
2023-02-11T08:16:50.608Z,103561.93
2023-02-11T08:19:18.643Z,103565.45
2023-02-11T08:21:47.215Z,103569.80
2023-02-11T08:24:15.116Z,103577.00
2023-02-11T08:26:42.913Z,103566.63
2023-02-11T08:29:12.759Z,103570.03
2023-02-11T08:31:42.316Z,103577.20
2023-02-11T08:34:11.744Z,103584.75
2023-02-11T08:36:40.310Z,103585.01
2023-02-11T08:39:20.524Z,103569.91
2023-02-11T08:41:50.147Z,103576.45
2023-02-11T08:44:19.346Z,103573.40
2023-02-11T08:46:48.152Z,103575.37
2023-02-11T08:49:16.322Z,103566.54
2023-02-11T08:51:44.148Z,103567.65
2023-02-11T08:54:12.186Z,103569.19
2023-02-11T08:56:40.094Z,103558.00
2023-02-11T08:59:08.526Z,103555.38
2023-02-11T09:01:36.597Z,103541.98
2023-02-11T09:04:04.520Z,103544.14
2023-02-11T09:06:32.840Z,103546.33
2023-02-11T09:09:02.075Z,103548.91
2023-02-11T09:11:34.833Z,103553.03
2023-02-11T09:14:03.563Z,103549.57
2023-02-11T09:16:33.811Z,103545.02
2023-02-11T09:19:02.423Z,103535.54
2023-02-11T09:21:30.456Z,103519.91
2023-02-11T09:23:58.395Z,103516.25
2023-02-11T09:26:30.903Z,103510.01
2023-02-11T09:28:58.784Z,103495.29
2023-02-11T09:31:27.894Z,103500.69
2023-02-11T09:33:58.001Z,103510.43
2023-02-11T09:36:27.970Z,103513.02
2023-02-11T09:38:56.213Z,103502.38
2023-02-11T09:41:44.528Z,103498.73
2023-02-11T09:44:20.222Z,103490.95
2023-02-11T09:46:51.587Z,103484.47
2023-02-11T09:49:21.553Z,103500.82
2023-02-11T09:51:54.818Z,103507.59
2023-02-11T09:54:29.582Z,103509.28
2023-02-11T09:56:58.002Z,103511.31
2023-02-11T09:59:25.905Z,103518.41
2023-02-11T10:02:11.066Z,103529.79
2023-02-11T10:04:57.121Z,103534.82
2023-02-11T10:07:41.999Z,103525.50
2023-02-11T10:10:24.100Z,103525.50
2023-02-11T10:13:05.107Z,103527.86
2023-02-11T10:15:38.950Z,103534.33
2023-02-11T10:18:31.286Z,103533.19
2023-02-11T10:21:05.017Z,103534.00
2023-02-11T10:23:35.751Z,103530.27
2023-02-11T10:26:03.669Z,103531.32
2023-02-11T10:28:33.974Z,103526.05
2023-02-11T10:31:16.315Z,103536.65
2023-02-11T10:34:10.589Z,103535.73
2023-02-11T10:36:41.202Z,103530.54
2023-02-11T10:39:15.748Z,103525.08
2023-02-11T10:41:48.688Z,103519.62
2023-02-11T10:44:34.874Z,103521.71
2023-02-11T10:47:06.489Z,103515.14
2023-02-11T10:49:39.195Z,103499.64
2023-02-11T10:52:19.273Z,103497.58
2023-02-11T10:55:05.064Z,103503.47
2023-02-11T10:57:41.650Z,103497.35
2023-02-11T11:00:40.263Z,103501.99
2023-02-11T11:03:20.082Z,103498.76
2023-02-11T11:05:58.921Z,103492.12
2023-02-11T11:08:47.134Z,103505.75
2023-02-11T11:11:17.015Z,103490.16
2023-02-11T11:13:53.749Z,103496.53
2023-02-11T11:16:22.899Z,103489.38
2023-02-11T11:18:52.883Z,103481.33
2023-02-11T11:21:24.660Z,103479.86
2023-02-11T11:24:00.126Z,103478.98
2023-02-11T11:26:47.817Z,103474.63
2023-02-11T11:29:38.674Z,103461.09
2023-02-11T11:32:12.406Z,103449.13
2023-02-11T11:34:43.121Z,103441.21
2023-02-11T11:37:28.479Z,103438.17
2023-02-11T11:40:32.412Z,103442.65
2023-02-11T11:43:15.354Z,103443.56
2023-02-11T11:45:59.787Z,103440.85
2023-02-11T11:48:34.157Z,103432.68
2023-02-11T11:51:03.597Z,103429.44
2023-02-11T11:53:45.041Z,103439.71
2023-02-11T11:56:21.157Z,103437.13
2023-02-11T11:58:49.366Z,103436.77
2023-02-11T12:01:29.496Z,103433.17
2023-02-11T12:04:06.312Z,103425.81
2023-02-11T12:06:55.732Z,103416.46
2023-02-11T12:09:35.379Z,103414.40
2023-02-11T12:12:35.509Z,103417.87
2023-02-11T12:15:31.170Z,103403.91
2023-02-11T12:18:10.940Z,103402.20
2023-02-11T12:20:47.602Z,103402.83
2023-02-11T12:23:36.613Z,103407.66
2023-02-11T12:26:16.188Z,103398.41
2023-02-11T12:29:05.092Z,103400.24
2023-02-11T12:31:39.333Z,103401.68
2023-02-11T12:34:25.907Z,103398.84
2023-02-11T12:37:17.333Z,103392.98
2023-02-11T12:39:53.069Z,103392.76
2023-02-11T12:43:09.963Z,103399.13
2023-02-11T12:46:03.589Z,103398.70
2023-02-11T12:48:58.760Z,103401.55
2023-02-11T12:51:49.800Z,103395.73
2023-02-11T12:54:30.770Z,103382.36
2023-02-11T12:57:05.305Z,103388.27
2023-02-11T12:59:42.564Z,103378.86
2023-02-11T13:02:24.622Z,103378.08
2023-02-11T13:04:55.305Z,103375.85
2023-02-11T13:07:29.492Z,103374.38
2023-02-11T13:10:01.268Z,103367.48
2023-02-11T13:12:48.645Z,103366.53
2023-02-11T13:15:16.844Z,103369.87
2023-02-11T13:17:59.572Z,103372.95
2023-02-11T13:20:44.619Z,103360.95
2023-02-11T13:23:40.924Z,103354.08
2023-02-11T13:26:20.018Z,103355.94
2023-02-11T13:28:55.560Z,103347.11
2023-02-11T13:31:27.925Z,103346.06
2023-02-11T13:33:56.233Z,103333.84
2023-02-11T13:36:26.769Z,103333.80
2023-02-11T13:39:09.181Z,103326.19
2023-02-11T13:41:39.954Z,103326.45
2023-02-11T13:44:10.758Z,103319.68
2023-02-11T13:46:51.113Z,103308.86
2023-02-11T13:49:24.160Z,103313.37
2023-02-11T13:51:52.020Z,103311.60
2023-02-11T13:54:26.578Z,103313.92
2023-02-11T13:57:17.175Z,103298.49
2023-02-11T13:59:45.858Z,103295.65
2023-02-11T14:02:46.317Z,103295.98
2023-02-11T14:05:39.829Z,103294.86
2023-02-11T14:08:31.906Z,103292.05
2023-02-11T14:11:25.289Z,103298.59
2023-02-11T14:13:53.028Z,103300.29
2023-02-11T14:16:36.902Z,103305.45
2023-02-11T14:19:05.082Z,103298.88
2023-02-11T14:21:37.976Z,103286.00
2023-02-11T14:24:06.106Z,103289.73
2023-02-11T14:27:00.592Z,103289.41
2023-02-11T14:29:55.185Z,103292.54
2023-02-11T14:32:39.456Z,103287.08
2023-02-11T14:35:10.121Z,103290.16
2023-02-11T14:37:50.759Z,103286.98
2023-02-11T14:40:31.934Z,103288.91
2023-02-11T14:43:16.596Z,103292.21
2023-02-11T14:45:45.847Z,103296.40
2023-02-11T14:48:17.964Z,103292.34
2023-02-11T14:51:11.973Z,103291.10
2023-02-11T14:53:39.699Z,103297.80
2023-02-11T14:56:17.645Z,103294.24
2023-02-11T14:58:49.754Z,103297.48
2023-02-11T15:01:37.403Z,103300.55
2023-02-11T15:04:06.765Z,103292.77
2023-02-11T15:06:38.998Z,103307.22
2023-02-11T15:09:14.419Z,103302.77
2023-02-11T15:11:43.527Z,103306.96
2023-02-11T15:14:20.319Z,103306.05
2023-02-11T15:16:48.237Z,103311.31
2023-02-11T15:19:25.727Z,103315.98
2023-02-11T15:21:54.049Z,103314.12
2023-02-11T15:24:25.465Z,103312.59
2023-02-11T15:27:26.945Z,103323.87
2023-02-11T15:29:54.906Z,103318.99
2023-02-11T15:32:26.766Z,103313.14
2023-02-11T15:34:55.217Z,103308.53
2023-02-11T15:37:33.076Z,103307.95
2023-02-11T15:40:21.326Z,103309.31
2023-02-11T15:43:08.806Z,103324.87
2023-02-11T15:45:36.660Z,103325.08
2023-02-11T15:48:21.412Z,103329.29
2023-02-11T15:50:56.925Z,103321.18
2023-02-11T15:53:28.495Z,103323.87
2023-02-11T15:56:09.150Z,103324.68
2023-02-11T15:58:38.699Z,103326.05
2023-02-11T16:01:06.661Z,103327.04
2023-02-11T16:03:34.817Z,103317.06
2023-02-11T16:06:20.976Z,103319.55
2023-02-11T16:09:18.200Z,103315.49
2023-02-11T16:11:48.799Z,103323.93
2023-02-11T16:14:35.800Z,103335.54
2023-02-11T16:17:14.287Z,103325.83
2023-02-11T16:19:49.003Z,103325.37
2023-02-11T16:22:39.299Z,103322.82
2023-02-11T16:25:08.303Z,103323.57
2023-02-11T16:27:42.481Z,103319.52
2023-02-11T16:30:45.969Z,103317.78
2023-02-11T16:33:13.804Z,103317.72
2023-02-11T16:35:41.907Z,103323.05
2023-02-11T16:38:09.824Z,103318.73
2023-02-11T16:40:38.440Z,103320.73
2023-02-11T16:43:06.533Z,103331.94
2023-02-11T16:45:37.923Z,103331.32
2023-02-11T16:48:09.638Z,103338.12
2023-02-11T16:50:37.429Z,103343.16
2023-02-11T16:53:07.585Z,103338.84
2023-02-11T16:55:36.273Z,103342.21
2023-02-11T16:58:04.153Z,103345.28
2023-02-11T17:00:32.076Z,103351.46
2023-02-11T17:02:59.830Z,103358.98
2023-02-11T17:05:28.107Z,103356.66
2023-02-11T17:07:55.953Z,103349.17
2023-02-11T17:10:24.292Z,103364.08
2023-02-11T17:12:52.529Z,103359.80
2023-02-11T17:15:20.372Z,103364.84
2023-02-11T17:17:49.209Z,103369.28
2023-02-11T17:20:17.768Z,103372.62
2023-02-11T17:22:45.591Z,103383.34
2023-02-11T17:25:13.411Z,103377.03
2023-02-11T17:27:41.626Z,103376.44
2023-02-11T17:30:10.421Z,103381.12
2023-02-11T17:32:49.190Z,103381.34
2023-02-11T17:35:17.178Z,103378.04
2023-02-11T17:37:45.043Z,103382.23
2023-02-11T17:40:15.250Z,103377.95
2023-02-11T17:42:43.148Z,103377.81
2023-02-11T17:45:11.486Z,103377.68
2023-02-11T17:47:39.275Z,103384.98
2023-02-11T17:50:07.720Z,103385.10
2023-02-11T17:52:35.712Z,103389.13
2023-02-11T17:55:03.598Z,103388.90
2023-02-11T17:57:37.508Z,103402.53
2023-02-11T18:00:09.347Z,103407.70
2023-02-11T18:02:37.183Z,103396.13
2023-02-11T18:05:05.509Z,103405.57
2023-02-11T18:07:38.602Z,103407.05
2023-02-11T18:10:11.890Z,103413.02
2023-02-11T18:12:44.486Z,103419.53
2023-02-11T18:15:12.522Z,103420.97
2023-02-11T18:17:45.300Z,103428.16
2023-02-11T18:20:13.522Z,103413.68
2023-02-11T18:22:42.773Z,103428.76
2023-02-11T18:25:12.209Z,103429.08
2023-02-11T18:27:40.332Z,103428.30
2023-02-11T18:30:09.403Z,103430.20
2023-02-11T18:32:37.498Z,103426.37
2023-02-11T18:35:05.525Z,103434.38
2023-02-11T18:37:33.262Z,103424.86
2023-02-11T18:40:01.109Z,103427.58
2023-02-11T18:42:29.243Z,103425.91
2023-02-11T18:44:57.010Z,103429.44
2023-02-11T18:47:24.990Z,103435.16
2023-02-11T18:49:52.891Z,103443.66
2023-02-11T18:52:20.765Z,103449.62
2023-02-11T18:54:48.690Z,103454.45
2023-02-11T18:57:16.537Z,103455.63
2023-02-11T18:59:45.020Z,103457.16
2023-02-11T19:02:13.213Z,103461.77
2023-02-11T19:04:41.064Z,103468.09
2023-02-11T19:07:08.970Z,103469.27
2023-02-11T19:09:36.841Z,103463.18
2023-02-11T19:12:05.937Z,103467.83
2023-02-11T19:14:34.922Z,103466.52
2023-02-11T19:17:05.117Z,103477.63
2023-02-11T19:19:35.132Z,103475.28
2023-02-11T19:22:03.259Z,103477.87
2023-02-11T19:24:31.473Z,103480.22
2023-02-11T19:27:01.381Z,103476.98
2023-02-11T19:29:29.884Z,103480.48
2023-02-11T19:31:57.900Z,103477.51
2023-02-11T19:34:25.798Z,103467.76
2023-02-11T19:36:55.342Z,103471.03
2023-02-11T19:39:25.278Z,103483.84
2023-02-11T19:41:53.549Z,103475.18
2023-02-11T19:44:21.536Z,103476.23
2023-02-11T19:46:51.448Z,103477.34
2023-02-11T19:49:24.016Z,103483.88
2023-02-11T19:51:52.345Z,103483.69
2023-02-11T19:54:21.337Z,103481.55
2023-02-11T19:56:49.912Z,103480.25
2023-02-11T19:59:17.795Z,103472.70
2023-02-11T20:01:48.630Z,103476.85
2023-02-11T20:04:19.660Z,103479.89
2023-02-11T20:06:49.520Z,103475.58
2023-02-11T20:09:17.340Z,103490.55
2023-02-11T20:11:45.301Z,103491.83
2023-02-11T20:14:15.888Z,103485.35
2023-02-11T20:16:49.258Z,103486.20
2023-02-11T20:19:19.206Z,103487.73
2023-02-11T20:21:48.188Z,103495.78
2023-02-11T20:24:19.399Z,103486.46
2023-02-11T20:26:49.307Z,103486.92
2023-02-11T20:29:18.111Z,103499.05
2023-02-11T20:31:46.126Z,103489.08
2023-02-11T20:34:14.134Z,103490.19
2023-02-11T20:36:42.068Z,103483.26
2023-02-11T20:39:10.001Z,103475.67
2023-02-11T20:41:40.782Z,103479.14
2023-02-11T20:44:09.569Z,103485.61
2023-02-11T20:46:38.688Z,103483.26
2023-02-11T20:49:07.016Z,103482.41
2023-02-11T20:51:35.262Z,103482.21
2023-02-11T20:54:03.493Z,103483.06
2023-02-11T20:56:33.166Z,103481.98
2023-02-11T20:59:01.281Z,103472.01
2023-02-11T21:01:31.387Z,103470.51
2023-02-11T21:04:07.377Z,103472.89
2023-02-11T21:06:40.143Z,103469.23
2023-02-11T21:09:08.857Z,103473.74
2023-02-11T21:11:36.766Z,103471.39
2023-02-11T21:14:04.560Z,103477.47
2023-02-11T21:16:32.617Z,103480.94
2023-02-11T21:19:01.876Z,103480.71
2023-02-11T21:21:29.950Z,103487.02
2023-02-11T21:23:57.947Z,103485.52
2023-02-11T21:26:26.052Z,103491.14
2023-02-11T21:28:53.945Z,103490.29
2023-02-11T21:31:27.890Z,103484.24
2023-02-11T21:33:56.553Z,103486.59
2023-02-11T21:36:24.775Z,103477.30
2023-02-11T21:38:52.817Z,103483.36
2023-02-11T21:41:22.985Z,103485.55
2023-02-11T21:43:51.362Z,103488.36
2023-02-11T21:46:19.406Z,103489.66
2023-02-11T21:48:47.440Z,103487.90
2023-02-11T21:51:17.510Z,103492.05
2023-02-11T21:53:45.618Z,103492.05
2023-02-11T21:56:15.334Z,103495.91
2023-02-11T21:58:43.185Z,103498.98
2023-02-11T22:01:13.288Z,103499.61
2023-02-11T22:03:41.284Z,103498.10
2023-02-11T22:06:16.586Z,103487.09
2023-02-11T22:08:49.164Z,103494.84
2023-02-11T22:11:17.077Z,103493.36
2023-02-11T22:13:44.965Z,103497.02
2023-02-11T22:16:17.389Z,103502.84
2023-02-11T22:18:48.146Z,103505.23
2023-02-11T22:21:17.871Z,103504.58
2023-02-11T22:23:45.989Z,103508.50
2023-02-11T22:26:21.205Z,103510.63
2023-02-11T22:28:49.498Z,103518.63
2023-02-11T22:31:19.924Z,103516.05
2023-02-11T22:33:48.340Z,103520.17
2023-02-11T22:36:24.051Z,103515.40
2023-02-11T22:38:51.916Z,103503.73
2023-02-11T22:41:19.885Z,103517.98
2023-02-11T22:43:47.959Z,103515.40
2023-02-11T22:46:17.511Z,103509.97
2023-02-11T22:48:45.499Z,103503.30
2023-02-11T22:51:15.438Z,103503.30
2023-02-11T22:53:44.859Z,103511.93
2023-02-11T22:56:15.784Z,103507.62
2023-02-11T22:58:43.978Z,103509.35
2023-02-11T23:01:12.006Z,103511.73
2023-02-11T23:03:39.902Z,103511.51
2023-02-11T23:06:08.163Z,103521.91
2023-02-11T23:08:36.115Z,103528.61
2023-02-11T23:11:06.128Z,103532.70
2023-02-11T23:13:35.325Z,103534.66
2023-02-11T23:16:05.830Z,103533.32
2023-02-11T23:18:34.062Z,103544.99
2023-02-11T23:21:06.879Z,103555.81
2023-02-11T23:23:35.274Z,103557.31
2023-02-11T23:26:03.199Z,103550.84
2023-02-11T23:28:31.191Z,103545.88
2023-02-11T23:30:59.015Z,103538.52
2023-02-11T23:33:27.031Z,103536.98
2023-02-11T23:35:55.144Z,103535.05
2023-02-11T23:38:23.174Z,103548.65
2023-02-11T23:40:50.982Z,103545.22
2023-02-11T23:43:18.829Z,103539.59
2023-02-11T23:45:46.737Z,103535.28
2023-02-11T23:48:15.536Z,103541.30
2023-02-11T23:50:45.312Z,103536.75
2023-02-11T23:53:13.171Z,103533.32
2023-02-11T23:55:44.883Z,103540.84
2023-02-11T23:58:13.015Z,103540.22
